createdAt,value
2023-01-03T00:00:11.868Z,100476.63
2023-01-03T00:02:14.119Z,100478.44
2023-01-03T00:04:19.550Z,100483.00
2023-01-03T00:06:34.611Z,100476.88
2023-01-03T00:08:37.354Z,100477.69
2023-01-03T00:10:39.996Z,100477.69
2023-01-03T00:12:42.340Z,100470.53
2023-01-03T00:14:44.735Z,100478.59
2023-01-03T00:16:50.305Z,100476.00
2023-01-03T00:18:52.775Z,100476.16
2023-01-03T00:20:54.773Z,100473.53
2023-01-03T00:22:57.288Z,100474.41
2023-01-03T00:24:59.670Z,100479.78
2023-01-03T00:27:02.227Z,100476.22
2023-01-03T00:29:13.428Z,100473.53
2023-01-03T00:31:15.601Z,100466.41
2023-01-03T00:33:17.748Z,100470.13
2023-01-03T00:35:19.824Z,100474.66
2023-01-03T00:37:23.094Z,100479.13
2023-01-03T00:39:25.814Z,100480.84
2023-01-03T00:41:28.358Z,100479.19
2023-01-03T00:43:30.595Z,100482.72
2023-01-03T00:45:35.668Z,100487.19
2023-01-03T00:47:38.036Z,100482.69
2023-01-03T00:49:40.239Z,100482.72
2023-01-03T00:51:42.904Z,100483.81
2023-01-03T00:53:48.639Z,100495.50
2023-01-03T00:55:51.001Z,100500.88
2023-01-03T00:57:53.159Z,100504.38
2023-01-03T00:59:55.499Z,100494.53
2023-01-03T01:01:58.087Z,100495.41
2023-01-03T01:04:07.759Z,100495.44
2023-01-03T01:06:18.804Z,100497.16
2023-01-03T01:08:20.806Z,100492.63
2023-01-03T01:10:23.388Z,100492.59
2023-01-03T01:12:25.709Z,100486.38
2023-01-03T01:14:30.024Z,100483.75
2023-01-03T01:16:33.012Z,100484.56
2023-01-03T01:18:39.308Z,100485.44
2023-01-03T01:20:41.590Z,100482.75
2023-01-03T01:22:43.705Z,100481.00
2023-01-03T01:24:45.981Z,100480.19
2023-01-03T01:26:48.532Z,100485.50
2023-01-03T01:28:52.032Z,100487.41
2023-01-03T01:30:54.728Z,100487.59
2023-01-03T01:32:57.406Z,100488.50
2023-01-03T01:34:59.558Z,100495.63
2023-01-03T01:37:01.703Z,100484.97
2023-01-03T01:39:07.563Z,100489.50
2023-01-03T01:41:14.118Z,100485.13
2023-01-03T01:43:42.373Z,100488.66
2023-01-03T01:45:47.861Z,100491.38
2023-01-03T01:48:13.414Z,100490.50
2023-01-03T01:50:49.326Z,100486.03
2023-01-03T01:52:54.834Z,100477.03
2023-01-03T01:54:59.116Z,100475.31
2023-01-03T01:57:02.475Z,100476.19
2023-01-03T01:59:09.235Z,100475.31
2023-01-03T02:01:14.007Z,100470.88
2023-01-03T02:03:16.315Z,100473.63
2023-01-03T02:09:12.491Z,100474.44
2023-01-03T02:11:42.790Z,100473.56
2023-01-03T02:14:06.144Z,100481.72
2023-01-03T02:16:48.422Z,100479.97
2023-01-03T02:19:38.327Z,100488.06
2023-01-03T02:21:58.562Z,100485.47
2023-01-03T02:24:31.774Z,100490.88
2023-01-03T02:26:39.542Z,100487.31
2023-01-03T02:29:14.797Z,100482.94
2023-01-03T02:31:33.786Z,100478.50
2023-01-03T02:33:46.604Z,100475.75
2023-01-03T02:36:19.638Z,100481.00
2023-01-03T02:38:40.948Z,100481.81
2023-01-03T02:40:56.429Z,100469.38
2023-01-03T02:43:19.451Z,100475.53
2023-01-03T02:45:31.159Z,100479.22
2023-01-03T02:47:46.140Z,100473.78
2023-01-03T02:49:51.720Z,100480.03
2023-01-03T02:51:59.841Z,100473.72
2023-01-03T02:54:05.341Z,100476.53
2023-01-03T02:56:11.921Z,100475.53
2023-01-03T02:58:22.797Z,100476.56
2023-01-03T03:00:29.502Z,100478.38
2023-01-03T03:02:35.160Z,100484.56
2023-01-03T03:04:40.134Z,100483.66
2023-01-03T03:06:50.294Z,100496.22
2023-01-03T03:08:52.553Z,100497.09
2023-01-03T03:11:14.463Z,100494.47
2023-01-03T03:13:41.401Z,100489.22
2023-01-03T03:16:01.785Z,100488.25
2023-01-03T03:18:19.228Z,100487.47
2023-01-03T03:20:40.626Z,100485.63
2023-01-03T03:23:03.646Z,100482.94
2023-01-03T03:25:31.886Z,100474.19
2023-01-03T03:28:09.613Z,100485.66
2023-01-03T03:30:15.971Z,100474.03
2023-01-03T03:32:18.639Z,100478.50
2023-01-03T03:34:32.792Z,100466.88
2023-01-03T03:36:51.565Z,100466.88
2023-01-03T03:38:54.359Z,100467.75
2023-01-03T03:41:23.996Z,100457.97
2023-01-03T03:44:03.231Z,100449.13
2023-01-03T03:46:16.085Z,100452.56
2023-01-03T03:49:25.384Z,100467.03
2023-01-03T03:51:34.803Z,100479.44
2023-01-03T03:53:39.685Z,100490.03
2023-01-03T03:55:46.127Z,100489.13
2023-01-03T03:57:55.288Z,100488.31
2023-01-03T04:00:03.535Z,100490.91
2023-01-03T04:02:16.927Z,100487.28
2023-01-03T04:04:25.160Z,100489.03
2023-01-03T04:06:36.302Z,100494.44
2023-01-03T04:08:38.821Z,100497.00
2023-01-03T04:10:44.145Z,100497.06
2023-01-03T04:12:50.810Z,100493.50
2023-01-03T04:14:53.273Z,100491.69
2023-01-03T04:16:55.639Z,100494.44
2023-01-03T04:18:57.785Z,100498.84
2023-01-03T04:21:00.292Z,100497.97
2023-01-03T04:23:02.371Z,100496.22
2023-01-03T04:25:04.814Z,100493.50
2023-01-03T04:27:07.163Z,100501.59
2023-01-03T04:29:09.316Z,100498.03
2023-01-03T04:31:13.052Z,100506.97
2023-01-03T04:33:15.820Z,100507.03
2023-01-03T04:35:18.175Z,100508.81
2023-01-03T04:37:20.493Z,100513.31
2023-01-03T04:39:22.767Z,100507.13
2023-01-03T04:41:24.971Z,100503.47
2023-01-03T04:43:46.424Z,100507.13
2023-01-03T04:45:49.868Z,100503.53
2023-01-03T04:47:54.221Z,100510.63
2023-01-03T04:49:56.567Z,100515.97
2023-01-03T04:51:59.028Z,100519.63
2023-01-03T04:54:02.148Z,100519.66
2023-01-03T04:56:04.453Z,100529.41
2023-01-03T04:58:06.584Z,100520.50
2023-01-03T05:00:10.343Z,100521.44
2023-01-03T05:02:12.603Z,100527.59
2023-01-03T05:04:14.804Z,100523.19
2023-01-03T05:06:18.082Z,100524.00
2023-01-03T05:08:20.126Z,100535.56
2023-01-03T05:10:22.452Z,100521.19
2023-01-03T05:12:24.763Z,100528.19
2023-01-03T05:14:27.029Z,100519.28
2023-01-03T05:16:29.719Z,100521.94
2023-01-03T05:18:33.038Z,100536.28
2023-01-03T05:20:57.777Z,100527.47
2023-01-03T05:23:18.619Z,100523.88
2023-01-03T05:25:40.113Z,100528.34
2023-01-03T05:27:42.146Z,100525.72
2023-01-03T05:29:47.576Z,100522.13
2023-01-03T05:31:50.002Z,100538.22
2023-01-03T05:33:54.022Z,100533.69
2023-01-03T05:35:56.239Z,100550.69
2023-01-03T05:37:58.600Z,100551.59
2023-01-03T05:40:00.866Z,100555.19
2023-01-03T05:42:03.215Z,100546.25
2023-01-03T05:44:06.443Z,100547.19
2023-01-03T05:46:08.594Z,100557.03
2023-01-03T05:48:15.001Z,100554.41
2023-01-03T05:50:17.272Z,100558.88
2023-01-03T05:52:20.114Z,100557.16
2023-01-03T05:54:22.073Z,100569.78
2023-01-03T05:56:24.503Z,100573.34
2023-01-03T05:58:26.625Z,100577.81
2023-01-03T06:00:29.693Z,100583.19
2023-01-03T06:02:32.050Z,100588.47
2023-01-03T06:04:34.396Z,100592.03
2023-01-03T06:06:36.578Z,100587.59
2023-01-03T06:08:39.442Z,100597.41
2023-01-03T06:10:41.469Z,100594.84
2023-01-03T06:12:44.029Z,100593.94
2023-01-03T06:14:46.107Z,100596.56
2023-01-03T06:17:06.753Z,100596.50
2023-01-03T06:19:11.542Z,100609.06
2023-01-03T06:21:13.577Z,100614.34
2023-01-03T06:23:16.137Z,100606.31
2023-01-03T06:25:20.918Z,100613.47
2023-01-03T06:27:23.566Z,100605.47
2023-01-03T06:29:26.135Z,100604.63
2023-01-03T06:31:28.399Z,100612.66
2023-01-03T06:33:30.673Z,100604.63
2023-01-03T06:35:32.606Z,100601.97
2023-01-03T06:37:34.930Z,100606.41
2023-01-03T06:39:37.576Z,100615.25
2023-01-03T06:41:40.445Z,100614.31
2023-01-03T06:43:42.890Z,100609.84
2023-01-03T06:46:03.636Z,100616.91
2023-01-03T06:48:25.544Z,100610.56
2023-01-03T06:50:46.538Z,100616.78
2023-01-03T06:53:07.112Z,100604.34
2023-01-03T06:55:09.765Z,100615.00
2023-01-03T06:57:11.975Z,100606.88
2023-01-03T06:59:30.239Z,100615.75
2023-01-03T07:01:32.860Z,100621.03
2023-01-03T07:03:35.368Z,100607.63
2023-01-03T07:05:37.564Z,100611.19
2023-01-03T07:07:40.118Z,100613.88
2023-01-03T07:09:42.283Z,100618.31
2023-01-03T07:11:44.765Z,100618.22
2023-01-03T07:13:59.099Z,100623.50
2023-01-03T07:16:01.462Z,100622.59
2023-01-03T07:18:03.922Z,100626.97
2023-01-03T07:20:06.693Z,100626.88
2023-01-03T07:22:11.821Z,100632.25
2023-01-03T07:24:18.853Z,100627.81
2023-01-03T07:26:21.539Z,100626.84
2023-01-03T07:28:24.025Z,100625.06
2023-01-03T07:30:26.328Z,100623.19
2023-01-03T07:32:28.579Z,100626.69
2023-01-03T07:34:37.197Z,100624.72
2023-01-03T07:36:39.526Z,100626.38
2023-01-03T07:38:43.380Z,100624.50
2023-01-03T07:40:48.688Z,100620.88
2023-01-03T07:43:10.074Z,100626.16
2023-01-03T07:45:15.175Z,100631.53
2023-01-03T07:47:17.315Z,100628.94
2023-01-03T07:49:19.424Z,100633.22
2023-01-03T07:51:22.388Z,100639.38
2023-01-03T07:53:24.447Z,100626.78
2023-01-03T07:55:29.532Z,100634.72
2023-01-03T07:57:31.528Z,100638.22
2023-01-03T07:59:33.680Z,100640.78
2023-01-03T08:01:36.040Z,100636.25
2023-01-03T08:03:39.533Z,100645.22
2023-01-03T08:05:41.623Z,100645.09
2023-01-03T08:07:48.006Z,100641.41
2023-01-03T08:10:08.398Z,100652.94
2023-01-03T08:12:46.742Z,100657.44
2023-01-03T08:14:48.692Z,100659.13
2023-01-03T08:16:50.987Z,100668.91
2023-01-03T08:18:52.939Z,100657.28
2023-01-03T08:20:57.216Z,100652.88
2023-01-03T08:23:00.623Z,100656.44
2023-01-03T08:25:02.619Z,100663.63
2023-01-03T08:27:05.359Z,100667.19
2023-01-03T08:29:08.165Z,100667.09
2023-01-03T08:31:18.823Z,100674.22
2023-01-03T08:33:21.289Z,100670.53
2023-01-03T08:35:27.458Z,100672.34
2023-01-03T08:37:46.757Z,100674.97
2023-01-03T08:39:59.440Z,100671.41
2023-01-03T08:42:05.258Z,100664.22
2023-01-03T08:44:14.815Z,100670.53
2023-01-03T08:46:18.234Z,100673.22
2023-01-03T08:48:22.431Z,100665.91
2023-01-03T08:50:26.584Z,100670.34
2023-01-03T08:52:34.517Z,100665.88
2023-01-03T08:54:38.215Z,100673.00
2023-01-03T08:56:40.485Z,100681.06
2023-01-03T08:58:42.744Z,100683.75
2023-01-03T09:00:48.046Z,100681.06
2023-01-03T09:02:50.638Z,100677.38
2023-01-03T09:04:52.920Z,100680.13
2023-01-03T09:06:55.114Z,100681.75
2023-01-03T09:08:57.355Z,100681.72
2023-01-03T09:10:59.353Z,100674.56
2023-01-03T09:13:04.951Z,100680.69
2023-01-03T09:15:07.439Z,100682.38
2023-01-03T09:17:10.003Z,100682.41
2023-01-03T09:19:12.042Z,100676.94
2023-01-03T09:21:14.129Z,100677.84
2023-01-03T09:23:17.869Z,100670.53
2023-01-03T09:25:20.340Z,100666.84
2023-01-03T09:27:23.322Z,100670.38
2023-01-03T09:29:25.485Z,100671.25
2023-01-03T09:31:29.441Z,100663.25
2023-01-03T09:33:31.907Z,100670.16
2023-01-03T09:35:34.433Z,100663.91
2023-01-03T09:37:37.288Z,100662.09
2023-01-03T09:39:43.774Z,100651.28
2023-01-03T09:42:07.324Z,100654.84
2023-01-03T09:44:10.377Z,100654.69
2023-01-03T09:46:24.644Z,100649.41
2023-01-03T09:48:34.841Z,100651.97
2023-01-03T09:51:14.067Z,100643.69
2023-01-03T09:53:21.160Z,100639.97
2023-01-03T09:55:53.679Z,100642.63
2023-01-03T09:58:14.304Z,100639.84
2023-01-03T10:01:01.212Z,100639.72
2023-01-03T10:03:50.397Z,100649.50
2023-01-03T10:06:44.274Z,100653.78
2023-01-03T10:09:02.075Z,100646.53
2023-01-03T10:11:12.463Z,100639.47
2023-01-03T10:13:26.517Z,100639.56
2023-01-03T10:16:32.882Z,100637.69
2023-01-03T10:18:48.235Z,100631.13
2023-01-03T10:21:28.325Z,100629.28
2023-01-03T10:23:31.320Z,100626.50
2023-01-03T10:25:33.509Z,100632.59
2023-01-03T10:28:10.704Z,100623.47
2023-01-03T10:30:19.977Z,100628.66
2023-01-03T10:33:15.427Z,100628.72
2023-01-03T10:35:19.783Z,100632.97
2023-01-03T10:37:24.362Z,100623.94
2023-01-03T10:39:32.804Z,100626.63
2023-01-03T10:41:46.305Z,100619.41
2023-01-03T10:44:02.737Z,100620.16
2023-01-03T10:46:25.638Z,100629.69
2023-01-03T10:49:08.389Z,100624.13
2023-01-03T10:51:32.711Z,100623.84
2023-01-03T10:53:41.693Z,100625.47
2023-01-03T10:55:54.960Z,100616.41
2023-01-03T10:57:59.399Z,100604.59
2023-01-03T11:00:02.084Z,100608.13
2023-01-03T11:02:13.031Z,100596.41
2023-01-03T11:04:18.455Z,100592.75
2023-01-03T11:06:20.827Z,100604.38
2023-01-03T11:09:03.210Z,100602.56
2023-01-03T11:11:05.734Z,100599.72
2023-01-03T11:13:41.134Z,100596.19
2023-01-03T11:15:44.002Z,100595.03
2023-01-03T11:17:54.762Z,100588.81
2023-01-03T11:19:57.539Z,100593.16
2023-01-03T11:22:38.639Z,100594.91
2023-01-03T11:24:52.768Z,100586.72
2023-01-03T11:27:17.900Z,100583.91
2023-01-03T11:29:45.029Z,100583.91
2023-01-03T11:32:05.600Z,100578.50
2023-01-03T11:34:37.915Z,100587.41
2023-01-03T11:37:03.532Z,100583.78
2023-01-03T11:39:52.532Z,100587.34
2023-01-03T11:42:03.269Z,100585.47
2023-01-03T11:44:34.437Z,100598.84
2023-01-03T11:46:48.574Z,100597.00
2023-01-03T11:49:24.638Z,100594.19
2023-01-03T11:51:48.450Z,100595.84
2023-01-03T11:54:27.320Z,100595.84
2023-01-03T11:56:47.319Z,100598.50
2023-01-03T11:59:19.644Z,100599.31
2023-01-03T12:02:07.552Z,100593.97
2023-01-03T12:04:18.932Z,100602.81
2023-01-03T12:06:45.093Z,100591.94
2023-01-03T12:09:25.079Z,100604.63
2023-01-03T12:11:57.305Z,100597.41
2023-01-03T12:14:44.155Z,100603.59
2023-01-03T12:16:51.836Z,100596.31
2023-01-03T12:19:33.113Z,100596.38
2023-01-03T12:21:42.267Z,100598.16
2023-01-03T12:23:52.769Z,100594.63
2023-01-03T12:26:02.707Z,100599.13
2023-01-03T12:28:19.147Z,100598.16
2023-01-03T12:30:39.850Z,100594.41
2023-01-03T12:32:55.449Z,100597.19
2023-01-03T12:35:19.566Z,100591.78
2023-01-03T12:37:30.202Z,100596.22
2023-01-03T12:39:56.895Z,100597.97
2023-01-03T12:42:25.081Z,100596.13
2023-01-03T12:44:41.190Z,100590.81
2023-01-03T12:46:55.453Z,100598.84
2023-01-03T12:49:01.561Z,100605.06
2023-01-03T12:51:06.403Z,100608.72
2023-01-03T12:53:36.066Z,100602.47
2023-01-03T12:56:05.343Z,100607.13
2023-01-03T12:58:07.498Z,100608.19
2023-01-03T13:00:25.951Z,100602.06
2023-01-03T13:03:01.800Z,100608.44
2023-01-03T13:05:16.495Z,100611.06
2023-01-03T13:07:26.410Z,100607.34
2023-01-03T13:09:36.126Z,100606.28
2023-01-03T13:11:49.065Z,100607.25
2023-01-03T13:14:03.317Z,100607.25
2023-01-03T13:16:50.976Z,100598.44
2023-01-03T13:18:54.235Z,100606.47
2023-01-03T13:20:57.215Z,100598.50
2023-01-03T13:23:14.380Z,100595.03
2023-01-03T13:25:42.122Z,100596.69
2023-01-03T13:27:56.599Z,100604.03
2023-01-03T13:30:03.668Z,100607.63
2023-01-03T13:32:25.394Z,100619.31
2023-01-03T13:34:34.493Z,100611.25
2023-01-03T13:37:05.827Z,100625.72
2023-01-03T13:39:44.915Z,100620.44
2023-01-03T13:41:54.453Z,100621.41
2023-01-03T13:44:08.935Z,100630.44
2023-01-03T13:46:28.071Z,100629.56
2023-01-03T13:48:38.770Z,100623.03
2023-01-03T13:50:43.176Z,100627.69
2023-01-03T13:53:10.562Z,100626.06
2023-01-03T13:55:57.673Z,100630.59
2023-01-03T13:58:00.401Z,100630.59
2023-01-03T14:00:12.520Z,100627.97
2023-01-03T14:02:40.475Z,100630.81
2023-01-03T14:05:21.191Z,100636.06
2023-01-03T14:07:51.321Z,100630.78
2023-01-03T14:10:01.110Z,100633.50
2023-01-03T14:12:22.042Z,100631.75
2023-01-03T14:14:31.235Z,100639.97
2023-01-03T14:16:56.253Z,100645.53
2023-01-03T14:19:11.500Z,100637.44
2023-01-03T14:21:25.876Z,100640.25
2023-01-03T14:23:59.230Z,100635.63
2023-01-03T14:25:52.159Z,100637.34
2023-01-03T14:27:56.387Z,100639.22
2023-01-03T14:29:58.830Z,100637.47
2023-01-03T14:32:01.249Z,100632.97
2023-01-03T14:34:05.728Z,100641.06
2023-01-03T14:36:19.287Z,100642.03
2023-01-03T14:38:32.299Z,100645.84
2023-01-03T14:40:34.924Z,100635.75
2023-01-03T14:42:45.506Z,100639.50
2023-01-03T14:44:55.943Z,100646.81
2023-01-03T14:47:01.310Z,100645.88
2023-01-03T14:49:07.278Z,100648.53
2023-01-03T14:51:10.637Z,100659.34
2023-01-03T14:53:14.124Z,100653.94
2023-01-03T14:55:19.213Z,100651.28
2023-01-03T14:57:28.327Z,100657.59
2023-01-03T14:59:31.965Z,100652.25
2023-01-03T15:01:34.545Z,100656.75
2023-01-03T15:03:40.963Z,100651.44
2023-01-03T15:05:43.700Z,100654.16
2023-01-03T15:07:45.972Z,100663.16
2023-01-03T15:09:49.429Z,100664.06
2023-01-03T15:11:57.460Z,100662.31
2023-01-03T15:14:06.768Z,100659.75
2023-01-03T15:16:38.154Z,100660.81
2023-01-03T15:18:41.160Z,100660.72
2023-01-03T15:20:45.237Z,100663.47
2023-01-03T15:22:47.710Z,100669.78
2023-01-03T15:25:15.966Z,100661.81
2023-01-03T15:27:39.460Z,100669.06
2023-01-03T15:29:44.835Z,100676.19
2023-01-03T15:31:54.266Z,100677.19
2023-01-03T15:34:34.283Z,100678.19
2023-01-03T15:36:37.550Z,100678.00
2023-01-03T15:38:43.845Z,100681.63
2023-01-03T15:40:49.641Z,100682.59
2023-01-03T15:43:11.428Z,100679.88
2023-01-03T15:45:41.311Z,100684.53
2023-01-03T15:47:44.476Z,100684.50
2023-01-03T15:49:49.749Z,100681.94
2023-01-03T15:51:51.660Z,100681.88
2023-01-03T15:53:54.288Z,100692.69
2023-01-03T15:56:00.941Z,100684.72
2023-01-03T15:58:03.100Z,100688.19
2023-01-03T16:00:08.091Z,100694.44
2023-01-03T16:02:18.457Z,100692.75
2023-01-03T16:04:21.932Z,100688.19
2023-01-03T16:06:24.360Z,100695.41
2023-01-03T16:08:33.592Z,100701.75
2023-01-03T16:10:36.632Z,100702.66
2023-01-03T16:12:43.728Z,100704.41
2023-01-03T16:14:49.410Z,100707.25
2023-01-03T16:16:57.169Z,100704.50
2023-01-03T16:18:59.786Z,100715.38
2023-01-03T16:21:03.142Z,100721.63
2023-01-03T16:23:05.655Z,100715.34
2023-01-03T16:25:15.718Z,100719.00
2023-01-03T16:27:25.705Z,100715.34
2023-01-03T16:29:27.874Z,100718.06
2023-01-03T16:31:35.523Z,100718.16
2023-01-03T16:33:38.511Z,100722.56
2023-01-03T16:35:40.605Z,100731.53
2023-01-03T16:37:43.146Z,100731.53
2023-01-03T16:40:20.359Z,100735.34
2023-01-03T16:42:27.970Z,100728.03
2023-01-03T16:44:30.157Z,100734.34
2023-01-03T16:46:35.214Z,100737.94
2023-01-03T16:48:40.956Z,100732.56
2023-01-03T16:50:43.797Z,100735.25
2023-01-03T16:52:48.707Z,100731.69
2023-01-03T16:54:51.450Z,100735.25
2023-01-03T16:56:53.558Z,100741.50
2023-01-03T16:58:55.739Z,100744.19
2023-01-03T17:00:57.718Z,100742.44
2023-01-03T17:03:01.188Z,100750.44
2023-01-03T17:05:41.676Z,100752.41
2023-01-03T17:07:46.614Z,100743.22
2023-01-03T17:09:50.485Z,100744.28
2023-01-03T17:11:52.639Z,100745.94
2023-01-03T17:14:02.056Z,100743.22
2023-01-03T17:16:09.480Z,100745.84
2023-01-03T17:18:19.968Z,100734.31
2023-01-03T17:20:23.351Z,100730.72
2023-01-03T17:22:25.630Z,100731.69
2023-01-03T17:24:28.903Z,100735.34
2023-01-03T17:26:33.246Z,100739.00
2023-01-03T17:28:35.652Z,100743.50
2023-01-03T17:30:38.331Z,100747.03
2023-01-03T17:32:42.934Z,100741.66
2023-01-03T17:34:45.320Z,100744.28
2023-01-03T17:36:47.273Z,100742.47
2023-01-03T17:38:50.290Z,100738.06
2023-01-03T17:40:53.064Z,100740.97
2023-01-03T17:42:57.665Z,100736.38
2023-01-03T17:45:19.277Z,100733.63
2023-01-03T17:47:41.784Z,100732.03
2023-01-03T17:49:44.001Z,100728.50
2023-01-03T17:51:46.465Z,100734.72
2023-01-03T17:53:49.967Z,100738.38
2023-01-03T17:55:52.785Z,100734.72
2023-01-03T17:57:56.596Z,100741.94
2023-01-03T17:59:58.992Z,100742.13
2023-01-03T18:02:01.298Z,100726.03
2023-01-03T18:04:06.219Z,100735.84
2023-01-03T18:06:20.228Z,100738.56
2023-01-03T18:08:24.036Z,100740.22
2023-01-03T18:10:43.769Z,100744.00
2023-01-03T18:12:48.425Z,100748.38
2023-01-03T18:14:50.894Z,100743.00
2023-01-03T18:16:55.221Z,100736.78
2023-01-03T18:18:57.788Z,100739.44
2023-01-03T18:21:00.201Z,100740.22
2023-01-03T18:23:02.488Z,100737.50
2023-01-03T18:25:05.294Z,100750.94
2023-01-03T18:27:09.566Z,100759.03
2023-01-03T18:29:15.513Z,100759.09
2023-01-03T18:31:19.670Z,100757.34
2023-01-03T18:33:22.246Z,100753.59
2023-01-03T18:35:32.392Z,100750.91
2023-01-03T18:37:37.721Z,100755.44
2023-01-03T18:39:39.981Z,100760.13
2023-01-03T18:41:42.597Z,100765.59
2023-01-03T18:43:44.616Z,100755.72
2023-01-03T18:45:47.771Z,100762.84
2023-01-03T18:47:50.826Z,100761.97
2023-01-03T18:49:53.222Z,100760.31
2023-01-03T18:51:55.969Z,100768.44
2023-01-03T18:53:59.892Z,100772.91
2023-01-03T18:56:03.160Z,100771.25
2023-01-03T18:58:24.120Z,100769.50
2023-01-03T19:00:27.428Z,100772.00
2023-01-03T19:02:30.672Z,100775.50
2023-01-03T19:04:33.346Z,100776.38
2023-01-03T19:06:43.261Z,100768.53
2023-01-03T19:08:45.844Z,100771.09
2023-01-03T19:10:48.245Z,100778.25
2023-01-03T19:12:53.524Z,100782.69
2023-01-03T19:14:58.451Z,100786.31
2023-01-03T19:17:00.580Z,100791.53
2023-01-03T19:19:03.362Z,100788.00
2023-01-03T19:21:05.870Z,100786.28
2023-01-03T19:23:08.336Z,100798.91
2023-01-03T19:25:16.366Z,100789.16
2023-01-03T19:27:29.934Z,100799.97
2023-01-03T19:29:39.769Z,100800.75
2023-01-03T19:31:44.639Z,100800.75
2023-01-03T19:33:46.765Z,100790.91
2023-01-03T19:35:50.098Z,100783.72
2023-01-03T19:37:53.018Z,100788.22
2023-01-03T19:39:55.489Z,100788.22
2023-01-03T19:42:18.651Z,100782.84
2023-01-03T19:44:20.942Z,100787.44
2023-01-03T19:46:23.374Z,100793.59
2023-01-03T19:48:29.147Z,100791.91
2023-01-03T19:50:36.117Z,100786.59
2023-01-03T19:52:38.583Z,100792.81
2023-01-03T19:54:40.859Z,100778.44
2023-01-03T19:56:43.550Z,100779.31
2023-01-03T19:58:46.109Z,100771.28
2023-01-03T20:00:49.683Z,100773.13
2023-01-03T20:02:56.434Z,100772.41
2023-01-03T20:04:59.296Z,100768.88
2023-01-03T20:07:01.626Z,100764.38
2023-01-03T20:09:03.840Z,100759.03
2023-01-03T20:11:21.178Z,100758.31
2023-01-03T20:13:25.770Z,100750.19
2023-01-03T20:15:38.034Z,100746.72
2023-01-03T20:17:40.205Z,100751.13
2023-01-03T20:19:42.411Z,100757.28
2023-01-03T20:21:46.495Z,100767.25
2023-01-03T20:23:54.707Z,100763.72
2023-01-03T20:25:56.931Z,100761.81
2023-01-03T20:28:01.027Z,100759.13
2023-01-03T20:30:03.847Z,100762.59
2023-01-03T20:32:06.630Z,100764.47
2023-01-03T20:34:12.191Z,100763.53
2023-01-03T20:36:23.216Z,100760.84
2023-01-03T20:38:27.583Z,100758.03
2023-01-03T20:40:29.923Z,100763.47
2023-01-03T20:42:32.060Z,100761.66
2023-01-03T20:44:34.069Z,100773.34
2023-01-03T20:46:39.053Z,100773.34
2023-01-03T20:48:41.442Z,100768.84
2023-01-03T20:50:45.324Z,100765.28
2023-01-03T20:52:48.244Z,100766.16
2023-01-03T20:54:53.230Z,100768.00
2023-01-03T20:56:55.272Z,100774.28
2023-01-03T20:58:58.634Z,100773.38
2023-01-03T21:01:05.396Z,100768.00
2023-01-03T21:03:09.280Z,100762.63
2023-01-03T21:05:11.833Z,100762.63
2023-01-03T21:07:27.130Z,100759.22
2023-01-03T21:09:29.160Z,100765.44
2023-01-03T21:11:34.082Z,100764.50
2023-01-03T21:13:36.949Z,100760.06
2023-01-03T21:15:39.402Z,100762.75
2023-01-03T21:17:45.653Z,100764.56
2023-01-03T21:19:51.027Z,100769.06
2023-01-03T21:21:55.248Z,100771.84
2023-01-03T21:23:57.760Z,100767.34
2023-01-03T21:25:59.867Z,100772.72
2023-01-03T21:28:03.204Z,100781.59
2023-01-03T21:30:31.164Z,100771.03
2023-01-03T21:32:33.520Z,100779.91
2023-01-03T21:34:35.727Z,100775.41
2023-01-03T21:36:38.325Z,100769.22
2023-01-03T21:38:40.727Z,100776.41
2023-01-03T21:40:43.137Z,100782.69
2023-01-03T21:43:05.433Z,100781.81
2023-01-03T21:45:12.966Z,100786.31
2023-01-03T21:47:15.197Z,100792.53
2023-01-03T21:49:17.767Z,100781.75
2023-01-03T21:51:33.137Z,100789.00
2023-01-03T21:53:40.204Z,100795.28
2023-01-03T21:55:44.616Z,100792.63
2023-01-03T21:57:47.112Z,100792.59
2023-01-03T21:59:49.386Z,100789.88
2023-01-03T22:02:10.350Z,100791.69
2023-01-03T22:04:19.707Z,100790.88
2023-01-03T22:06:21.963Z,100788.19
2023-01-03T22:08:24.097Z,100784.63
2023-01-03T22:10:26.899Z,100789.06
2023-01-03T22:12:29.171Z,100781.88
2023-01-03T22:14:31.572Z,100789.06
2023-01-03T22:16:33.807Z,100777.38
2023-01-03T22:18:37.246Z,100785.44
2023-01-03T22:20:39.414Z,100784.56
2023-01-03T22:22:42.794Z,100786.38
2023-01-03T22:24:44.997Z,100788.19
2023-01-03T22:26:47.398Z,100789.06
2023-01-03T22:28:49.616Z,100782.81
2023-01-03T22:30:52.133Z,100791.75
2023-01-03T22:32:57.569Z,100782.75
2023-01-03T22:34:59.832Z,100786.31
2023-01-03T22:37:02.026Z,100785.44
2023-01-03T22:39:04.373Z,100786.31
2023-01-03T22:41:15.296Z,100785.53
2023-01-03T22:43:17.849Z,100785.44
2023-01-03T22:45:19.991Z,100781.88
2023-01-03T22:47:22.322Z,100788.13
2023-01-03T22:49:24.527Z,100790.81
2023-01-03T22:51:27.098Z,100793.44
2023-01-03T22:53:29.376Z,100790.75
2023-01-03T22:55:32.360Z,100794.34
2023-01-03T22:57:34.896Z,100795.22
2023-01-03T22:59:39.370Z,100792.50
2023-01-03T23:01:41.437Z,100791.66
2023-01-03T23:03:44.405Z,100800.59
2023-01-03T23:05:46.448Z,100789.84
2023-01-03T23:07:48.530Z,100797.91
2023-01-03T23:09:52.683Z,100801.50
2023-01-03T23:12:13.245Z,100804.19
2023-01-03T23:14:18.255Z,100794.44
2023-01-03T23:16:20.507Z,100795.31
2023-01-03T23:18:22.841Z,100793.50
2023-01-03T23:20:31.177Z,100794.44
2023-01-03T23:22:33.357Z,100798.06
2023-01-03T23:24:35.621Z,100803.38
2023-01-03T23:26:38.139Z,100802.50
2023-01-03T23:28:40.357Z,100802.50
2023-01-03T23:30:42.566Z,100803.44
2023-01-03T23:32:44.665Z,100800.75
2023-01-03T23:34:46.816Z,100797.13
2023-01-03T23:36:49.193Z,100796.13
2023-01-03T23:38:51.633Z,100797.13
2023-01-03T23:40:53.984Z,100793.50
2023-01-03T23:42:56.023Z,100788.19
2023-01-03T23:44:58.405Z,100796.25
2023-01-03T23:47:00.481Z,100794.56
2023-01-03T23:49:04.965Z,100802.56
2023-01-03T23:51:10.807Z,100800.69
2023-01-03T23:53:12.818Z,100792.63
2023-01-03T23:55:15.242Z,100798.16
2023-01-03T23:57:17.674Z,100797.31
2023-01-03T23:59:19.698Z,100799.03
